createdAt,value
2022-07-31T00:00:02.190Z,0.00
2022-07-31T00:00:52.181Z,0.00
2022-07-31T00:01:42.159Z,0.00
2022-07-31T00:02:32.159Z,0.00
2022-07-31T00:03:22.203Z,0.00
2022-07-31T00:04:12.139Z,0.00
2022-07-31T00:05:02.139Z,0.00
2022-07-31T00:05:52.118Z,0.00
2022-07-31T00:06:42.099Z,0.00
2022-07-31T00:07:32.099Z,0.00
2022-07-31T00:08:22.087Z,0.00
2022-07-31T00:09:45.378Z,0.00
2022-07-31T00:10:03.084Z,0.00
2022-07-31T00:10:52.058Z,0.00
2022-07-31T00:11:42.048Z,0.00
2022-07-31T00:12:32.062Z,0.00
2022-07-31T00:13:57.340Z,0.00
2022-07-31T00:14:13.027Z,0.00
2022-07-31T00:15:02.028Z,0.00
2022-07-31T00:15:52.021Z,0.00
2022-07-31T00:16:41.990Z,0.00
2022-07-31T00:17:31.988Z,0.00
2022-07-31T00:18:21.987Z,0.00
2022-07-31T00:19:11.967Z,0.00
2022-07-31T00:20:01.965Z,0.00
2022-07-31T00:20:51.967Z,0.00
2022-07-31T00:21:41.938Z,0.00
2022-07-31T00:22:31.936Z,0.00
2022-07-31T00:23:21.938Z,0.00
2022-07-31T00:24:11.915Z,0.00
2022-07-31T00:25:01.898Z,0.00
2022-07-31T00:25:51.898Z,0.00
2022-07-31T00:26:41.886Z,0.00
2022-07-31T00:27:31.878Z,0.00
2022-07-31T00:28:21.904Z,0.00
2022-07-31T00:29:11.866Z,0.00
2022-07-31T00:30:01.846Z,0.00
2022-07-31T00:30:51.845Z,0.00
2022-07-31T00:31:41.826Z,0.00
2022-07-31T00:32:31.824Z,0.00
2022-07-31T00:33:21.807Z,0.00
2022-07-31T00:34:11.818Z,0.00
2022-07-31T00:35:01.792Z,0.00
2022-07-31T00:35:51.786Z,0.00
2022-07-31T00:36:41.767Z,0.00
2022-07-31T00:37:31.767Z,0.00
2022-07-31T00:38:28.819Z,0.00
2022-07-31T00:39:12.765Z,0.00
2022-07-31T00:40:01.733Z,0.00
2022-07-31T00:40:51.739Z,0.00
2022-07-31T00:41:41.727Z,0.00
2022-07-31T00:42:31.707Z,0.00
2022-07-31T00:43:21.696Z,0.00
2022-07-31T00:44:12.322Z,0.00
2022-07-31T00:45:01.683Z,0.00
2022-07-31T00:45:59.202Z,0.00
2022-07-31T00:46:42.660Z,0.00
2022-07-31T00:47:31.656Z,0.00
2022-07-31T00:48:21.666Z,0.00
2022-07-31T00:49:11.680Z,0.00
2022-07-31T00:50:01.624Z,0.00
2022-07-31T00:50:51.625Z,0.00
2022-07-31T00:51:41.603Z,0.00
2022-07-31T00:52:31.614Z,0.00
2022-07-31T00:53:21.587Z,0.00
2022-07-31T00:54:18.663Z,0.00
2022-07-31T00:55:02.583Z,0.00
2022-07-31T00:55:52.340Z,0.00
2022-07-31T00:56:41.546Z,0.00
2022-07-31T00:57:31.547Z,0.00
2022-07-31T00:58:21.533Z,0.00
2022-07-31T00:59:11.544Z,0.00
2022-07-31T01:00:01.508Z,0.00
2022-07-31T01:00:51.580Z,0.00
2022-07-31T01:01:41.518Z,0.00
2022-07-31T01:02:31.536Z,0.00
2022-07-31T01:03:21.475Z,0.00
2022-07-31T01:04:15.662Z,0.00
2022-07-31T01:05:01.456Z,0.00
2022-07-31T01:05:51.447Z,0.00
2022-07-31T01:06:42.779Z,0.00
2022-07-31T01:07:31.434Z,0.00
2022-07-31T01:08:21.434Z,0.00
2022-07-31T01:09:11.415Z,0.00
2022-07-31T01:10:01.397Z,0.00
2022-07-31T01:10:51.395Z,0.00
2022-07-31T01:11:41.394Z,0.00
2022-07-31T01:12:31.374Z,0.00
2022-07-31T01:13:21.385Z,0.00
2022-07-31T01:14:11.357Z,0.00
2022-07-31T01:15:01.345Z,0.00
2022-07-31T01:15:51.341Z,0.00
2022-07-31T01:16:41.325Z,0.00
2022-07-31T01:17:31.323Z,0.00
2022-07-31T01:18:21.304Z,0.00
2022-07-31T01:19:11.315Z,0.00
2022-07-31T01:20:01.289Z,0.00
2022-07-31T01:20:51.284Z,0.00
2022-07-31T01:21:41.284Z,0.00
2022-07-31T01:22:32.891Z,0.00
2022-07-31T01:23:21.252Z,0.00
2022-07-31T01:24:11.262Z,0.00
2022-07-31T01:25:01.235Z,0.00
2022-07-31T01:25:51.225Z,0.00
2022-07-31T01:26:41.355Z,0.00
2022-07-31T01:27:31.212Z,0.00
2022-07-31T01:28:21.194Z,0.00
2022-07-31T01:29:11.193Z,0.00
2022-07-31T01:30:01.184Z,0.00
2022-07-31T01:31:05.051Z,0.00
2022-07-31T01:31:42.184Z,0.00
2022-07-31T01:32:31.151Z,0.00
2022-07-31T01:33:21.142Z,0.00
2022-07-31T01:34:11.126Z,0.00
2022-07-31T01:35:01.173Z,0.00
2022-07-31T01:35:51.124Z,0.00
2022-07-31T01:36:41.103Z,0.00
2022-07-31T01:37:31.094Z,0.00
2022-07-31T01:38:21.092Z,0.00
2022-07-31T01:39:11.089Z,0.00
2022-07-31T01:40:01.078Z,0.00
2022-07-31T01:40:51.054Z,0.00
2022-07-31T01:41:41.055Z,0.00
2022-07-31T01:42:31.051Z,0.00
2022-07-31T01:43:21.032Z,0.00
2022-07-31T01:44:13.848Z,0.00
2022-07-31T01:45:01.014Z,0.00
2022-07-31T01:45:50.995Z,0.00
2022-07-31T01:46:41.528Z,0.00
2022-07-31T01:47:31.005Z,0.00
2022-07-31T01:48:20.973Z,0.00
2022-07-31T01:49:11.023Z,0.00
2022-07-31T01:50:00.953Z,0.00
2022-07-31T01:50:50.941Z,0.00
2022-07-31T01:51:40.935Z,0.00
2022-07-31T01:52:30.922Z,0.00
2022-07-31T01:53:20.943Z,0.00
2022-07-31T01:54:10.903Z,0.00
2022-07-31T01:55:00.901Z,0.00
2022-07-31T01:56:01.932Z,0.00
2022-07-31T01:56:41.884Z,0.00
2022-07-31T01:57:30.882Z,0.00
2022-07-31T01:58:20.863Z,0.00
2022-07-31T01:59:12.397Z,0.00
2022-07-31T02:00:01.867Z,0.00
2022-07-31T02:00:50.868Z,0.00
2022-07-31T02:01:40.867Z,0.00
2022-07-31T02:02:30.824Z,0.00
2022-07-31T02:03:42.946Z,0.00
2022-07-31T02:04:11.789Z,0.00
2022-07-31T02:05:00.801Z,0.00
2022-07-31T02:05:50.783Z,0.00
2022-07-31T02:06:40.762Z,0.00
2022-07-31T02:07:30.753Z,0.00
2022-07-31T02:08:20.751Z,0.00
2022-07-31T02:09:10.743Z,0.00
2022-07-31T02:10:00.731Z,0.00
2022-07-31T02:10:50.732Z,0.00
2022-07-31T02:11:53.266Z,0.00
2022-07-31T02:12:33.110Z,0.00
2022-07-31T02:13:20.692Z,0.00
2022-07-31T02:14:10.672Z,0.00
2022-07-31T02:15:00.700Z,0.00
2022-07-31T02:15:50.659Z,0.00
2022-07-31T02:16:40.660Z,0.00
2022-07-31T02:17:30.642Z,0.00
2022-07-31T02:18:20.631Z,0.00
2022-07-31T02:19:10.629Z,0.00
2022-07-31T02:20:00.865Z,0.00
2022-07-31T02:20:50.630Z,0.00
2022-07-31T02:21:40.605Z,0.00
2022-07-31T02:22:30.580Z,0.00
2022-07-31T02:23:20.581Z,0.00
2022-07-31T02:24:10.580Z,0.00
2022-07-31T02:25:00.560Z,0.00
2022-07-31T02:25:50.551Z,0.00
2022-07-31T02:26:40.540Z,0.00
2022-07-31T02:27:55.425Z,0.00
2022-07-31T02:28:21.540Z,0.00
2022-07-31T02:29:19.999Z,0.00
2022-07-31T02:30:01.542Z,0.00
2022-07-31T02:30:50.488Z,0.00
2022-07-31T02:31:40.480Z,0.00
2022-07-31T02:32:30.469Z,0.00
2022-07-31T02:33:20.470Z,0.00
2022-07-31T02:34:10.461Z,0.00
2022-07-31T02:35:00.441Z,0.00
2022-07-31T02:35:50.437Z,0.00
2022-07-31T02:36:40.427Z,0.00
2022-07-31T02:37:30.411Z,0.00
2022-07-31T02:38:22.539Z,0.00
2022-07-31T02:39:10.421Z,0.00
2022-07-31T02:40:00.397Z,0.00
2022-07-31T02:40:50.371Z,0.00
2022-07-31T02:41:40.380Z,0.00
2022-07-31T02:42:30.359Z,0.00
2022-07-31T02:43:20.349Z,0.00
2022-07-31T02:44:10.350Z,0.00
2022-07-31T02:45:00.329Z,0.00
2022-07-31T02:45:50.318Z,0.00
2022-07-31T02:46:40.337Z,0.00
2022-07-31T02:47:30.299Z,0.00
2022-07-31T02:48:20.297Z,0.00
2022-07-31T02:49:10.328Z,0.00
2022-07-31T02:50:00.279Z,0.00
2022-07-31T02:50:50.259Z,0.00
2022-07-31T02:51:42.779Z,0.00
2022-07-31T02:52:30.259Z,0.00
2022-07-31T02:53:20.239Z,0.00
2022-07-31T02:54:10.227Z,0.00
2022-07-31T02:55:00.220Z,0.00
2022-07-31T02:55:50.206Z,0.00
2022-07-31T02:56:40.202Z,0.00
2022-07-31T02:57:30.188Z,0.00
2022-07-31T02:58:20.208Z,0.00
2022-07-31T02:59:10.169Z,0.00
2022-07-31T03:00:00.185Z,0.00
2022-07-31T03:00:50.263Z,0.00
2022-07-31T03:01:40.151Z,0.00
2022-07-31T03:02:36.865Z,0.00
2022-07-31T03:03:21.138Z,0.00
2022-07-31T03:04:10.112Z,0.00
2022-07-31T03:05:00.114Z,0.00
2022-07-31T03:05:50.143Z,0.00
2022-07-31T03:06:40.086Z,0.00
2022-07-31T03:07:30.069Z,0.00
2022-07-31T03:08:20.077Z,0.00
2022-07-31T03:09:10.056Z,0.00
2022-07-31T03:10:00.048Z,0.00
2022-07-31T03:10:50.035Z,0.00
2022-07-31T03:11:40.177Z,0.00
2022-07-31T03:12:30.016Z,0.00
2022-07-31T03:13:20.016Z,0.00
2022-07-31T03:14:09.997Z,0.00
2022-07-31T03:14:59.997Z,0.00
2022-07-31T03:15:50.924Z,0.00
2022-07-31T03:16:39.976Z,0.00
2022-07-31T03:17:38.090Z,0.00
2022-07-31T03:18:20.957Z,0.00
2022-07-31T03:19:09.937Z,0.00
2022-07-31T03:19:59.937Z,0.00
2022-07-31T03:20:49.917Z,0.00
2022-07-31T03:21:39.916Z,0.00
2022-07-31T03:22:29.917Z,0.00
2022-07-31T03:23:19.898Z,0.00
2022-07-31T03:24:09.896Z,0.00
2022-07-31T03:24:59.877Z,0.00
2022-07-31T03:25:49.868Z,0.00
2022-07-31T03:26:39.866Z,0.00
2022-07-31T03:27:29.857Z,0.00
2022-07-31T03:28:19.845Z,0.00
2022-07-31T03:29:42.345Z,4.00
2022-07-31T03:30:00.826Z,4.00
2022-07-31T03:30:49.806Z,4.00
2022-07-31T03:31:39.805Z,0.00
2022-07-31T03:32:29.805Z,4.00
2022-07-31T03:33:19.906Z,4.00
2022-07-31T03:34:09.774Z,4.00
2022-07-31T03:34:59.776Z,4.00
2022-07-31T03:35:49.757Z,8.00
2022-07-31T03:36:39.753Z,8.00
2022-07-31T03:37:29.738Z,8.00
2022-07-31T03:38:42.144Z,12.00
2022-07-31T03:39:10.726Z,12.00
2022-07-31T03:39:59.727Z,12.00
2022-07-31T03:40:49.715Z,16.00
2022-07-31T03:41:39.699Z,16.00
2022-07-31T03:42:29.684Z,20.00
2022-07-31T03:43:19.675Z,20.00
2022-07-31T03:44:09.676Z,24.00
2022-07-31T03:44:59.656Z,24.00
2022-07-31T03:45:49.647Z,28.00
2022-07-31T03:46:39.636Z,32.00
2022-07-31T03:47:29.642Z,36.00
2022-07-31T03:48:19.623Z,40.00
2022-07-31T03:49:09.669Z,44.00
2022-07-31T03:49:59.613Z,48.00
2022-07-31T03:50:49.607Z,56.00
2022-07-31T03:51:39.585Z,60.00
2022-07-31T03:52:29.565Z,64.00
2022-07-31T03:53:19.575Z,76.00
2022-07-31T03:54:09.566Z,80.00
2022-07-31T03:54:59.545Z,88.00
2022-07-31T03:55:49.544Z,100.00
2022-07-31T03:56:39.533Z,108.00
2022-07-31T03:57:34.014Z,116.00
2022-07-31T03:58:20.525Z,124.00
2022-07-31T03:59:09.502Z,136.00
2022-07-31T03:59:59.513Z,144.00
2022-07-31T04:00:49.474Z,152.00
2022-07-31T04:01:58.233Z,164.00
2022-07-31T04:02:31.665Z,176.00
2022-07-31T04:03:19.460Z,188.00
2022-07-31T04:04:09.440Z,196.00
2022-07-31T04:04:59.446Z,212.00
2022-07-31T04:05:49.423Z,224.00
2022-07-31T04:06:39.533Z,236.00
2022-07-31T04:07:29.403Z,248.00
2022-07-31T04:08:19.414Z,260.00
2022-07-31T04:09:15.621Z,276.00
2022-07-31T04:10:00.393Z,292.00
2022-07-31T04:10:49.364Z,308.00
2022-07-31T04:11:39.369Z,328.00
2022-07-31T04:12:29.370Z,344.00
2022-07-31T04:13:19.344Z,360.00
2022-07-31T04:14:09.330Z,380.00
2022-07-31T04:14:59.324Z,400.00
2022-07-31T04:15:49.316Z,416.00
2022-07-31T04:16:39.316Z,432.00
2022-07-31T04:17:30.677Z,444.00
2022-07-31T04:18:19.304Z,460.00
2022-07-31T04:19:09.275Z,480.00
2022-07-31T04:19:59.286Z,500.00
2022-07-31T04:20:49.260Z,520.00
2022-07-31T04:21:39.269Z,540.00
2022-07-31T04:22:29.233Z,556.00
2022-07-31T04:23:19.262Z,572.00
2022-07-31T04:24:09.233Z,592.00
2022-07-31T04:24:59.220Z,612.00
2022-07-31T04:25:49.202Z,628.00
2022-07-31T04:26:39.201Z,644.00
2022-07-31T04:27:29.184Z,652.00
2022-07-31T04:28:19.180Z,664.00
2022-07-31T04:29:09.180Z,676.00
2022-07-31T04:29:59.170Z,692.00
2022-07-31T04:30:49.152Z,700.00
2022-07-31T04:31:39.141Z,708.00
2022-07-31T04:32:29.141Z,708.00
2022-07-31T04:33:19.131Z,712.00
2022-07-31T04:34:09.111Z,716.00
2022-07-31T04:34:59.103Z,736.00
2022-07-31T04:35:49.099Z,760.00
2022-07-31T04:36:39.111Z,796.00
2022-07-31T04:37:29.071Z,824.00
2022-07-31T04:38:19.069Z,852.00
2022-07-31T04:39:09.057Z,872.00
2022-07-31T04:39:59.059Z,888.00
2022-07-31T04:40:49.031Z,904.00
2022-07-31T04:41:39.030Z,916.00
2022-07-31T04:42:29.040Z,936.00
2022-07-31T04:43:19.031Z,956.00
2022-07-31T04:44:09.000Z,988.00
2022-07-31T04:44:58.999Z,1020.00
2022-07-31T04:45:48.980Z,1044.00
2022-07-31T04:46:38.980Z,1064.00
2022-07-31T04:47:29.001Z,1088.00
2022-07-31T04:48:18.959Z,1112.00
2022-07-31T04:49:09.015Z,1148.00
2022-07-31T04:49:58.949Z,1188.00
2022-07-31T04:50:48.922Z,1224.00
2022-07-31T04:51:38.920Z,1268.00
2022-07-31T04:52:28.911Z,1320.00
2022-07-31T04:53:18.920Z,1368.00
2022-07-31T04:54:08.889Z,1424.00
2022-07-31T04:54:58.940Z,1476.00
2022-07-31T04:55:48.882Z,1532.00
2022-07-31T04:56:38.869Z,1596.00
2022-07-31T04:57:28.859Z,1668.00
2022-07-31T04:58:18.867Z,1744.00
2022-07-31T04:59:08.836Z,1816.00
2022-07-31T05:00:00.857Z,1876.00
2022-07-31T05:00:48.819Z,1912.00
2022-07-31T05:01:38.860Z,1900.00
2022-07-31T05:02:28.804Z,1864.00
2022-07-31T05:03:18.790Z,1828.00
2022-07-31T05:04:08.787Z,1816.00
2022-07-31T05:04:58.769Z,1812.00
2022-07-31T05:05:48.780Z,1784.00
2022-07-31T05:06:38.757Z,1768.00
2022-07-31T05:07:29.140Z,1748.00
2022-07-31T05:08:18.735Z,1748.00
2022-07-31T05:09:10.726Z,1756.00
2022-07-31T05:09:59.727Z,1772.00
2022-07-31T05:10:48.721Z,1788.00
2022-07-31T05:11:38.698Z,1796.00
2022-07-31T05:12:28.688Z,1792.00
2022-07-31T05:13:18.686Z,1768.00
2022-07-31T05:14:08.680Z,1724.00
2022-07-31T05:14:58.688Z,1668.00
2022-07-31T05:15:48.656Z,1620.00
2022-07-31T05:16:38.641Z,1564.00
2022-07-31T05:17:28.638Z,1520.00
2022-07-31T05:18:18.618Z,1496.00
2022-07-31T05:19:13.646Z,1532.00
2022-07-31T05:19:59.638Z,1572.00
2022-07-31T05:20:48.597Z,1616.00
2022-07-31T05:21:53.295Z,1664.00
2022-07-31T05:22:29.577Z,1716.00
2022-07-31T05:23:18.569Z,1788.00
2022-07-31T05:24:08.567Z,1828.00
2022-07-31T05:24:58.549Z,1836.00
2022-07-31T05:25:48.568Z,1792.00
2022-07-31T05:26:38.526Z,1740.00
2022-07-31T05:27:32.029Z,1700.00
2022-07-31T05:28:18.507Z,1692.00
2022-07-31T05:29:09.517Z,1684.00
2022-07-31T05:29:58.498Z,1692.00
2022-07-31T05:30:48.513Z,1680.00
2022-07-31T05:31:38.479Z,1676.00
2022-07-31T05:32:29.466Z,1696.00
2022-07-31T05:33:18.457Z,1756.00
2022-07-31T05:34:08.455Z,1764.00
2022-07-31T05:34:58.437Z,1792.00
2022-07-31T05:35:48.464Z,1796.00
2022-07-31T05:36:38.417Z,1836.00
2022-07-31T05:37:28.437Z,1900.00
2022-07-31T05:38:18.400Z,1892.00
2022-07-31T05:39:08.415Z,1872.00
2022-07-31T05:39:58.395Z,1860.00
2022-07-31T05:40:48.376Z,1872.00
2022-07-31T05:41:38.369Z,1884.00
2022-07-31T05:42:28.358Z,1916.00
2022-07-31T05:43:18.346Z,1904.00
2022-07-31T05:44:08.356Z,1896.00
2022-07-31T05:44:58.326Z,1892.00
2022-07-31T05:45:48.324Z,1876.00
2022-07-31T05:46:38.307Z,1876.00
2022-07-31T05:47:39.815Z,1888.00
2022-07-31T05:48:19.285Z,1916.00
2022-07-31T05:49:08.386Z,1948.00
2022-07-31T05:49:58.276Z,1980.00
2022-07-31T05:50:48.265Z,2012.00
2022-07-31T05:51:38.244Z,2044.00
2022-07-31T05:52:28.275Z,2080.00
2022-07-31T05:53:18.226Z,2108.00
2022-07-31T05:54:08.244Z,2120.00
2022-07-31T05:54:58.214Z,2176.00
2022-07-31T05:55:48.205Z,2200.00
2022-07-31T05:56:38.208Z,2208.00
2022-07-31T05:57:33.312Z,2224.00
2022-07-31T05:58:19.177Z,2244.00
2022-07-31T05:59:08.194Z,2264.00
2022-07-31T05:59:58.165Z,2260.00
2022-07-31T06:00:48.165Z,2252.00
2022-07-31T06:01:38.224Z,2224.00
2022-07-31T06:02:28.135Z,2196.00
2022-07-31T06:03:18.115Z,2172.00
2022-07-31T06:04:08.113Z,2136.00
2022-07-31T06:04:58.094Z,2088.00
2022-07-31T06:05:48.104Z,2052.00
2022-07-31T06:06:38.075Z,2060.00
2022-07-31T06:07:28.073Z,2056.00
2022-07-31T06:08:18.065Z,2036.00
2022-07-31T06:09:08.072Z,2048.00
2022-07-31T06:09:58.045Z,2044.00
2022-07-31T06:10:48.033Z,2044.00
2022-07-31T06:11:38.024Z,2072.00
2022-07-31T06:12:28.016Z,2116.00
2022-07-31T06:13:18.004Z,2152.00
2022-07-31T06:14:08.007Z,2204.00
2022-07-31T06:14:57.994Z,2212.00
2022-07-31T06:15:49.354Z,2236.00
2022-07-31T06:16:37.962Z,2272.00
2022-07-31T06:17:28.966Z,2348.00
2022-07-31T06:18:18.949Z,2420.00
2022-07-31T06:19:07.941Z,2428.00
2022-07-31T06:19:57.954Z,2436.00
2022-07-31T06:20:47.925Z,2492.00
2022-07-31T06:21:37.911Z,2592.00
2022-07-31T06:22:27.902Z,2608.00
2022-07-31T06:23:22.866Z,2612.00
2022-07-31T06:24:08.958Z,2620.00
2022-07-31T06:24:57.870Z,2640.00
2022-07-31T06:25:47.863Z,2660.00
2022-07-31T06:26:37.851Z,2696.00
2022-07-31T06:27:34.024Z,2716.00
2022-07-31T06:28:18.850Z,2720.00
2022-07-31T06:29:07.830Z,2712.00
2022-07-31T06:29:57.841Z,2744.00
2022-07-31T06:30:47.812Z,2780.00
2022-07-31T06:31:37.795Z,2776.00
2022-07-31T06:32:27.802Z,2784.00
2022-07-31T06:33:37.825Z,2760.00
2022-07-31T06:34:08.772Z,2724.00
2022-07-31T06:34:57.762Z,2628.00
2022-07-31T06:35:47.784Z,2624.00
2022-07-31T06:36:37.742Z,2580.00
2022-07-31T06:37:27.732Z,2576.00
2022-07-31T06:38:17.730Z,2624.00
2022-07-31T06:39:07.722Z,2600.00
2022-07-31T06:39:57.714Z,2544.00
2022-07-31T06:40:47.702Z,2520.00
2022-07-31T06:41:37.701Z,2408.00
2022-07-31T06:42:27.680Z,2308.00
2022-07-31T06:43:17.669Z,2228.00
2022-07-31T06:44:07.667Z,2156.00
2022-07-31T06:44:57.641Z,2048.00
2022-07-31T06:45:52.247Z,2024.00
2022-07-31T06:46:48.609Z,2024.00
2022-07-31T06:47:28.631Z,1980.00
2022-07-31T06:48:17.611Z,2068.00
2022-07-31T06:49:09.030Z,2072.00
2022-07-31T06:49:57.608Z,2076.00
2022-07-31T06:50:47.603Z,2040.00
2022-07-31T06:51:37.584Z,2024.00
2022-07-31T06:52:27.590Z,2040.00
2022-07-31T06:53:17.559Z,2028.00
2022-07-31T06:54:07.551Z,2004.00
2022-07-31T06:54:57.562Z,1996.00
2022-07-31T06:55:47.540Z,2024.00
2022-07-31T06:56:37.520Z,2016.00
2022-07-31T06:57:27.541Z,2012.00
2022-07-31T06:58:17.502Z,2016.00
2022-07-31T06:59:07.498Z,2016.00
2022-07-31T06:59:57.491Z,2016.00
2022-07-31T07:00:47.482Z,2016.00
2022-07-31T07:01:37.530Z,2020.00
2022-07-31T07:02:27.481Z,2024.00
2022-07-31T07:03:17.481Z,2028.00
2022-07-31T07:04:07.451Z,2032.00
2022-07-31T07:05:05.607Z,2032.00
2022-07-31T07:05:48.430Z,2032.00
2022-07-31T07:06:37.410Z,2028.00
2022-07-31T07:07:31.808Z,2032.00
2022-07-31T07:08:17.407Z,2032.00
2022-07-31T07:09:07.401Z,2040.00
2022-07-31T07:09:57.397Z,2048.00
2022-07-31T07:10:47.370Z,2060.00
2022-07-31T07:11:37.370Z,2072.00
2022-07-31T07:12:27.370Z,2084.00
2022-07-31T07:13:17.341Z,2100.00
2022-07-31T07:14:07.340Z,2116.00
2022-07-31T07:14:57.339Z,2136.00
2022-07-31T07:15:47.319Z,2152.00
2022-07-31T07:16:37.320Z,2172.00
2022-07-31T07:17:29.431Z,2184.00
2022-07-31T07:18:17.288Z,2188.00
2022-07-31T07:19:07.298Z,2180.00
2022-07-31T07:19:57.277Z,2164.00
2022-07-31T07:20:47.281Z,2140.00
2022-07-31T07:21:37.249Z,2112.00
2022-07-31T07:22:31.106Z,2084.00
2022-07-31T07:23:17.237Z,2060.00
2022-07-31T07:24:07.229Z,2040.00
2022-07-31T07:24:57.239Z,2032.00
2022-07-31T07:25:47.210Z,2032.00
2022-07-31T07:26:37.203Z,2032.00
2022-07-31T07:27:27.199Z,2028.00
2022-07-31T07:28:29.413Z,2020.00
2022-07-31T07:29:08.199Z,2016.00
2022-07-31T07:29:57.173Z,2008.00
2022-07-31T07:30:47.163Z,2004.00
2022-07-31T07:31:37.150Z,2000.00
2022-07-31T07:32:27.146Z,2004.00
2022-07-31T07:33:40.753Z,2004.00
2022-07-31T07:34:08.129Z,2012.00
2022-07-31T07:35:00.033Z,2012.00
2022-07-31T07:35:47.110Z,2016.00
2022-07-31T07:36:37.099Z,2020.00
2022-07-31T07:37:27.096Z,2020.00
2022-07-31T07:38:17.098Z,2016.00
2022-07-31T07:39:07.079Z,2020.00
2022-07-31T07:39:57.070Z,2020.00
2022-07-31T07:40:48.059Z,2024.00
2022-07-31T07:41:37.050Z,2028.00
2022-07-31T07:42:27.048Z,2032.00
2022-07-31T07:43:17.049Z,2036.00
2022-07-31T07:44:07.049Z,2040.00
2022-07-31T07:44:57.016Z,2040.00
2022-07-31T07:45:47.018Z,2044.00
2022-07-31T07:46:36.998Z,2052.00
2022-07-31T07:47:27.007Z,2064.00
2022-07-31T07:48:18.027Z,2068.00
2022-07-31T07:49:07.026Z,2076.00
2022-07-31T07:49:56.979Z,2076.00
2022-07-31T07:50:46.959Z,2092.00
2022-07-31T07:51:36.993Z,2104.00
2022-07-31T07:52:28.885Z,2120.00
2022-07-31T07:53:16.931Z,2140.00
2022-07-31T07:54:06.929Z,2156.00
2022-07-31T07:54:56.910Z,2176.00
2022-07-31T07:55:46.912Z,2192.00
2022-07-31T07:56:36.895Z,2204.00
2022-07-31T07:57:26.908Z,2228.00
2022-07-31T07:58:16.880Z,2252.00
2022-07-31T07:59:06.879Z,2264.00
2022-07-31T07:59:57.870Z,2264.00
2022-07-31T08:00:46.896Z,2264.00
2022-07-31T08:01:36.923Z,2272.00
2022-07-31T08:02:26.839Z,2284.00
2022-07-31T08:03:49.332Z,2304.00
2022-07-31T08:04:07.841Z,2312.00
2022-07-31T08:04:56.807Z,2328.00
2022-07-31T08:05:46.799Z,2360.00
2022-07-31T08:06:36.790Z,2408.00
2022-07-31T08:07:41.810Z,2488.00
2022-07-31T08:08:17.774Z,2580.00
2022-07-31T08:09:06.767Z,2676.00
2022-07-31T08:09:56.767Z,2760.00
2022-07-31T08:10:46.750Z,2840.00
2022-07-31T08:11:36.738Z,2920.00
2022-07-31T08:12:26.732Z,3028.00
2022-07-31T08:13:16.717Z,3168.00
2022-07-31T08:14:06.719Z,3248.00
2022-07-31T08:14:56.689Z,3268.00
2022-07-31T08:15:46.699Z,3256.00
2022-07-31T08:16:36.679Z,3168.00
2022-07-31T08:17:26.670Z,3008.00
2022-07-31T08:18:16.659Z,2892.00
2022-07-31T08:19:06.669Z,2760.00
2022-07-31T08:19:56.639Z,2664.00
2022-07-31T08:20:46.629Z,2616.00
2022-07-31T08:21:36.618Z,2568.00
2022-07-31T08:22:26.617Z,2508.00
2022-07-31T08:23:18.189Z,2480.00
2022-07-31T08:24:06.609Z,2420.00
2022-07-31T08:24:56.579Z,2452.00
2022-07-31T08:25:46.570Z,2516.00
2022-07-31T08:26:36.559Z,2540.00
2022-07-31T08:27:40.010Z,2564.00
2022-07-31T08:28:19.544Z,2596.00
2022-07-31T08:29:07.760Z,2608.00
2022-07-31T08:29:56.518Z,2596.00
2022-07-31T08:30:46.513Z,2612.00
2022-07-31T08:31:36.499Z,2616.00
2022-07-31T08:32:26.499Z,2596.00
2022-07-31T08:33:16.476Z,2580.00
2022-07-31T08:34:06.488Z,2580.00
2022-07-31T08:34:56.469Z,2580.00
2022-07-31T08:35:50.198Z,2576.00
2022-07-31T08:36:36.448Z,2560.00
2022-07-31T08:38:01.898Z,2528.00
2022-07-31T08:38:17.438Z,2452.00
2022-07-31T08:39:06.409Z,2396.00
2022-07-31T08:39:56.401Z,2448.00
2022-07-31T08:40:46.396Z,2464.00
2022-07-31T08:41:36.403Z,2556.00
2022-07-31T08:42:26.369Z,2712.00
2022-07-31T08:44:02.477Z,2884.00
2022-07-31T08:44:07.368Z,2928.00
2022-07-31T08:44:56.341Z,2928.00
2022-07-31T08:45:46.335Z,2932.00
2022-07-31T08:46:36.330Z,2968.00
2022-07-31T08:47:26.315Z,3024.00
2022-07-31T08:48:16.330Z,3116.00
2022-07-31T08:49:06.351Z,3216.00
2022-07-31T08:49:56.288Z,3320.00
2022-07-31T08:50:48.783Z,3420.00
2022-07-31T08:51:51.349Z,3500.00
2022-07-31T08:52:27.252Z,3544.00
2022-07-31T08:53:16.262Z,3524.00
2022-07-31T08:54:06.250Z,3616.00
2022-07-31T08:54:56.229Z,3704.00
2022-07-31T08:55:57.102Z,3884.00
2022-07-31T08:56:37.212Z,4268.00
2022-07-31T08:57:26.198Z,4804.00
2022-07-31T08:58:16.199Z,5236.00
2022-07-31T08:59:06.179Z,5452.00
2022-07-31T08:59:56.204Z,5376.00
2022-07-31T09:00:46.200Z,5412.00
2022-07-31T09:01:36.184Z,5448.00
2022-07-31T09:02:26.131Z,5428.00
2022-07-31T09:03:16.138Z,5440.00
2022-07-31T09:04:06.121Z,5628.00
2022-07-31T09:04:56.119Z,5828.00
2022-07-31T09:05:46.128Z,5988.00
2022-07-31T09:06:36.099Z,6076.00
2022-07-31T09:07:26.081Z,6380.00
2022-07-31T09:08:16.081Z,6648.00
2022-07-31T09:09:06.081Z,6408.00
2022-07-31T09:09:56.062Z,6368.00
2022-07-31T09:10:49.891Z,6624.00
2022-07-31T09:11:36.044Z,7124.00
2022-07-31T09:12:33.281Z,7500.00
2022-07-31T09:13:17.038Z,7540.00
2022-07-31T09:14:06.022Z,7324.00
2022-07-31T09:14:56.003Z,7228.00
2022-07-31T09:15:45.992Z,7052.00
2022-07-31T09:16:35.999Z,6928.00
2022-07-31T09:17:25.974Z,6584.00
2022-07-31T09:18:15.983Z,6628.00
2022-07-31T09:19:52.262Z,6520.00
2022-07-31T09:19:56.952Z,6560.00
2022-07-31T09:20:45.933Z,6312.00
2022-07-31T09:21:35.931Z,6320.00
2022-07-31T09:22:25.972Z,6452.00
2022-07-31T09:23:15.912Z,6776.00
2022-07-31T09:24:05.913Z,7168.00
2022-07-31T09:24:55.892Z,7468.00
2022-07-31T09:25:45.881Z,7864.00
2022-07-31T09:26:35.879Z,7984.00
2022-07-31T09:27:25.882Z,7524.00
2022-07-31T09:28:15.862Z,6880.00
2022-07-31T09:29:05.843Z,6368.00
2022-07-31T09:29:55.853Z,6028.00
2022-07-31T09:30:55.824Z,5664.00
2022-07-31T09:31:36.821Z,5364.00
2022-07-31T09:32:25.812Z,5164.00
2022-07-31T09:33:16.630Z,5076.00
2022-07-31T09:34:05.853Z,4944.00
2022-07-31T09:34:55.782Z,4780.00
2022-07-31T09:35:45.764Z,4924.00
2022-07-31T09:36:35.763Z,5304.00
2022-07-31T09:37:25.752Z,5652.00
2022-07-31T09:38:15.744Z,5748.00
2022-07-31T09:39:05.744Z,6008.00
2022-07-31T09:39:55.734Z,6116.00
2022-07-31T09:40:55.380Z,6252.00
2022-07-31T09:41:57.901Z,5984.00
2022-07-31T09:42:26.834Z,6016.00
2022-07-31T09:43:15.692Z,5956.00
2022-07-31T09:44:10.017Z,5796.00
2022-07-31T09:44:56.673Z,5712.00
2022-07-31T09:45:48.606Z,5652.00
2022-07-31T09:46:35.653Z,5420.00
2022-07-31T09:47:25.644Z,5332.00
2022-07-31T09:48:26.286Z,5472.00
2022-07-31T09:49:06.691Z,5360.00
2022-07-31T09:49:55.645Z,5260.00
2022-07-31T09:50:45.615Z,5384.00
2022-07-31T09:51:35.602Z,5832.00
2022-07-31T09:52:25.584Z,6360.00
2022-07-31T09:53:15.588Z,7160.00
2022-07-31T09:54:05.575Z,8244.00
2022-07-31T09:54:55.574Z,9284.00
2022-07-31T09:55:45.544Z,10380.00
2022-07-31T09:56:35.546Z,11536.00
2022-07-31T09:57:25.532Z,12428.00
2022-07-31T09:58:15.525Z,12680.00
2022-07-31T09:59:05.554Z,12644.00
2022-07-31T09:59:55.505Z,12532.00
2022-07-31T10:00:45.561Z,12252.00
2022-07-31T10:01:35.561Z,11784.00
2022-07-31T10:02:25.475Z,11448.00
2022-07-31T10:03:15.475Z,11488.00
2022-07-31T10:04:05.456Z,11948.00
2022-07-31T10:04:55.475Z,12656.00
2022-07-31T10:05:45.435Z,12876.00
2022-07-31T10:06:35.447Z,12836.00
2022-07-31T10:07:32.222Z,12716.00
2022-07-31T10:08:16.424Z,12952.00
2022-07-31T10:09:05.405Z,13084.00
2022-07-31T10:09:55.469Z,12800.00
2022-07-31T10:10:45.418Z,12356.00
2022-07-31T10:11:35.391Z,12260.00
2022-07-31T10:12:25.365Z,12276.00
2022-07-31T10:13:15.372Z,12296.00
2022-07-31T10:14:05.347Z,12204.00
2022-07-31T10:14:55.347Z,12068.00
2022-07-31T10:15:45.326Z,12020.00
2022-07-31T10:16:35.347Z,12008.00
2022-07-31T10:17:25.317Z,12200.00
2022-07-31T10:18:15.377Z,12300.00
2022-07-31T10:19:05.298Z,12352.00
2022-07-31T10:19:55.290Z,12264.00
2022-07-31T10:20:45.276Z,12144.00
2022-07-31T10:21:35.287Z,11980.00
2022-07-31T10:22:25.260Z,11596.00
2022-07-31T10:23:15.256Z,11284.00
2022-07-31T10:24:05.256Z,11268.00
2022-07-31T10:24:55.257Z,11244.00
2022-07-31T10:25:53.500Z,11332.00